Flight Track Log - Related Links

Times and Time Zones

All times are in EDT time to prevent confusion due to time zone crossing. See the N804CC flight status page for this flight to view local times or setup timezone preferences in your user account.

Time Position Orientation Groundspeed Altitude Reporting Facility
EDT Latitude Longitude Course Direction KTS MPH feet Rate Location/Type
Thu 04:00:59 PM 30.4467 -87.1861 159° South 193 222 600  Level Jacksonville Center
Thu 04:02:24 PM 30.3564 -87.1458 159° South 268 308 4,600 2,690 Climbing Jacksonville Center
Thu 04:02:55 PM 30.3431 -87.1044 110° East 273 314 5,800 2,951 Climbing Jacksonville Center
Thu 04:03:25 PM 30.3589 -87.0667 64° Northeast 282 325 7,600 3,000 Climbing Jacksonville Center
Thu 04:03:55 PM 30.3869 -87.0414 38° Northeast 276 318 8,800 1,600 Climbing Jacksonville Center
Thu 04:04:55 PM 30.4719 -87.0572 351° North 299 344 10,000 600 Climbing Jacksonville Center
Thu 04:05:55 PM 30.5489 -87.1256 323° Northwest 304 350 10,000  Level Jacksonville Center
Thu 04:06:55 PM 30.6106 -87.2225 306° West 334 384 10,000  Level Jacksonville Center
Thu 04:07:55 PM 30.6869 -87.3081 316° Northwest 355 409 10,000  Level Jacksonville Center
Thu 04:08:55 PM 30.7589 -87.3936 314° West 365 420 10,000 2,037 Level Jacksonville Center
Thu 04:10:37 PM 30.8453 -87.5569 302° West 326 375 15,500 2,634 Climbing Houston Center
Thu 04:11:39 PM 30.8361 -87.6597 264° West 326 375 17,200 1,790 Climbing Houston Center
Thu 04:12:41 PM 30.8056 -87.7625 251° West 333 383 19,200 1,824 Climbing Houston Center
Thu 04:13:44 PM 30.7906 -87.8708 261° West 338 389 21,000 1,584 Climbing Houston Center
Thu 04:14:46 PM 30.7697 -87.9819 258° West 348 400 22,500 1,548 Climbing Houston Center
Thu 04:15:48 PM 30.7433 -88.1119 257° West 364 419 24,200 1,452 Climbing Houston Center
Thu 04:16:50 PM 30.7192 -88.2278 256° West 370 426 25,500 1,258 Climbing Houston Center
Thu 04:17:52 PM 30.6911 -88.3575 256° West 378 435 26,800 1,161 Climbing Houston Center
Thu 04:18:54 PM 30.6656 -88.4811 257° West 389 448 27,900 871 Climbing Houston Center
Thu 04:19:56 PM 30.6392 -88.6072 256° West 399 459 28,600 816 Climbing Houston Center
Thu 04:20:59 PM 30.6114 -88.7369 256° West 410 472 29,600 864 Climbing Houston Center
Thu 04:22:01 PM 30.5825 -88.8678 256° West 417 480 30,400 774 Climbing Houston Center
Thu 04:23:03 PM 30.5539 -89.0100 257° West 418 481 31,200 726 Climbing Houston Center
Thu 04:24:05 PM 30.5253 -89.1442 256° West 427 491 31,900 871 Climbing Houston Center
Thu 04:25:07 PM 30.4975 -89.2772 256° West 428 493 33,000 968 Climbing Houston Center
Thu 04:26:09 PM 30.4642 -89.4350 256° West 421 484 33,900 484 Climbing Houston Center
Thu 04:27:11 PM 30.4356 -89.5667 256° West 424 488 34,000 48 Climbing Houston Center
Thu 04:28:14 PM 30.4072 -89.6939 256° West 437 503 34,000  Level Houston Center
Thu 04:29:16 PM 30.3667 -89.8636 255° West 453 521 34,000  Level Houston Center
Thu 04:30:18 PM 30.3394 -90.0039 257° West 455 524 34,000  Level Houston Center
Thu 04:31:20 PM 30.3075 -90.1453 255° West 456 525 34,000  Level Houston Center
Thu 04:32:22 PM 30.2758 -90.2867 255° West 456 525 34,000  Level Houston Center
Thu 04:33:24 PM 30.2436 -90.4278 255° West 454 522 34,000  Level Houston Center
Thu 04:34:26 PM 30.2056 -90.5950 255° West 450 518 34,000  Level Houston Center
Thu 04:35:28 PM 30.1739 -90.7358 255° West 453 521 34,000  Level Houston Center
Thu 04:36:30 PM 30.1422 -90.8764 255° West 453 521 34,000  Level Houston Center
Thu 04:37:33 PM 30.1078 -91.0178 254° West 457 526 34,000  Level Houston Center
Thu 04:38:35 PM 30.0758 -91.1581 255° West 455 524 34,000  Level Houston Center
Thu 04:39:37 PM 30.0439 -91.2989 255° West 453 521 34,000  Level Houston Center
Thu 04:40:39 PM 30.0044 -91.4669 255° West 453 521 34,000  Level Houston Center
Thu 04:41:41 PM 29.9711 -91.6061 255° West 451 519 34,000  Level Houston Center
Thu 04:42:43 PM 29.9364 -91.7539 255° West 450 518 34,000  Level Houston Center
Thu 04:43:45 PM 29.9036 -91.8933 255° West 451 519 34,000  Level Houston Center
Thu 04:44:47 PM 29.8700 -92.0328 254° West 451 519 34,000  Level Houston Center
Thu 04:45:50 PM 29.8361 -92.1719 254° West 451 519 34,000  Level Houston Center
Thu 04:46:52 PM 29.8039 -92.3106 255° West 450 518 34,000  Level Houston Center
Thu 04:47:54 PM 29.7700 -92.4500 254° West 450 518 34,000  Level Houston Center
Thu 04:48:56 PM 29.7297 -92.6147 254° West 448 516 34,000  Level Houston Center
Thu 04:49:58 PM 29.6953 -92.7536 254° West 449 517 34,000  Level Houston Center
Thu 04:51:00 PM 29.6611 -92.8914 254° West 448 516 34,000  Level Houston Center
Thu 04:52:02 PM 29.6281 -93.0303 255° West 449 517 34,000  Level Houston Center
Thu 04:53:04 PM 29.5928 -93.1669 253° West 446 513 34,000  Level Houston Center
Thu 04:54:06 PM 29.5586 -93.3050 254° West 448 516 34,000  Level Houston Center
Thu 04:55:09 PM 29.5172 -93.4714 254° West 450 518 34,000  Level Houston Center
Thu 04:56:11 PM 29.4806 -93.6114 253° West 455 524 34,000  Level Houston Center
Thu 04:57:13 PM 29.4456 -93.7503 254° West 454 522 34,000  Level Houston Center
Thu 04:58:15 PM 29.4106 -93.8894 254° West 453 521 34,000  Level Houston Center
Thu 04:59:17 PM 29.3747 -94.0306 254° West 453 521 34,000  Level Houston Center
Thu 05:00:19 PM 29.3392 -94.1683 254° West 452 520 34,000  Level Houston Center
Thu 05:01:21 PM 29.3022 -94.3067 253° West 453 521 34,000  Level Houston Center
Thu 05:02:23 PM 29.2603 -94.4431 251° West 454 522 34,000  Level Houston Center
Thu 05:03:25 PM 29.1897 -94.5989 243° Southwest 457 526 34,000  Level Houston Center
Thu 05:04:28 PM 29.1331 -94.7281 243° Southwest 454 522 34,000  Level Houston Center
Thu 05:05:30 PM 29.0767 -94.8586 244° Southwest 455 524 34,000  Level Houston Center
Thu 05:06:32 PM 29.0200 -94.9867 243° Southwest 451 519 34,000  Level Houston Center
Thu 05:07:34 PM 28.9644 -95.1136 243° Southwest 446 513 34,000  Level Houston Center
Thu 05:08:36 PM 28.9081 -95.2403 243° Southwest 447 514 34,000 -968 Level Houston Center
Thu 05:09:38 PM 28.8408 -95.3944 244° Southwest 451 519 32,000 -2,758 Descending Houston Center
Thu 05:10:40 PM 28.7831 -95.5217 243° Southwest 451 519 28,300 -3,097 Descending Houston Center
Thu 05:11:42 PM 28.7261 -95.6486 243° Southwest 449 517 25,600 -2,256 Descending Houston Center
Thu 05:12:45 PM 28.6706 -95.7758 244° Southwest 449 517 23,600 -1,536 Descending Houston Center
Thu 05:13:47 PM 28.6236 -95.9061 248° West 447 514 22,400 -1,258 Descending Houston Center
Thu 05:14:49 PM 28.5683 -96.0564 247° West 440 506 21,000 -1,210 Descending Houston Center
Thu 05:15:51 PM 28.5217 -96.1825 247° West 434 499 19,900 -484 Descending Houston Center
Thu 05:16:53 PM 28.4744 -96.3100 247° West 435 501 20,000 -198 Climbing Houston Center
Thu 05:17:52 PM 28.4256 -96.4408 247° West 438 504 19,500 -1,190 Descending Houston Center
Thu 05:18:59 PM 28.3758 -96.5769 247° West 461 531 17,500 -2,079 Descending Houston Center
Thu 05:19:59 PM 28.3253 -96.7056 246° West 458 527 15,100 -2,585 Descending Houston Center
Thu 05:21:02 PM 28.2686 -96.8567 247° West 433 498 12,200 -2,400 Descending Houston Center
Thu 05:22:04 PM 28.2094 -96.9744 240° Southwest 435 501 10,100 -1,148 Descending Houston Center
Thu 05:22:57 PM 28.1433 -97.0742 233° Southwest 416 479 10,000 -56 Descending Houston Center
Thu 05:23:52 PM 28.0969 -97.1661 240° Southwest 380 437 10,000 -180 Level Houston Center
Thu 05:25:10 PM 28.0808 -97.3017 262° West 380 437 9,600 -1,417 Descending Houston Center
Thu 05:25:59 PM 28.0747 -97.3875 265° West 286 329 7,000 -3,000 Descending Houston Center
Thu 05:26:54 PM 28.0539 -97.4664 253° West 266 306 4,400 -2,127 Descending Houston Center
Thu 05:27:49 PM 28.0094 -97.5222 228° Southwest 269 310 3,100 -1,131 Descending Houston Center
Thu 05:28:56 PM 27.9556 -97.5889 228° Southwest 239 275 2,100 -520 Descending Houston Center
Thu 05:29:56 PM 27.9069 -97.6264 214° Southwest 202 232 2,000 -50 Descending Houston Center
Thu 05:30:57 PM 27.8583 -97.6044 158° South 196 226 2,000 -393 Level Houston Center
Thu 05:31:58 PM 27.8225 -97.5644 135° Southeast 150 173 1,200 -709 Descending Houston Center
Thu 05:32:47 PM 27.8033 -97.5433 136° Southeast 118 136 700 -612 Descending Houston Center
Thu 05:34:00 PM 27.7667 -97.5000 142° Southeast  Level FlightAware Approximate

Login

Don't have an account? Register now (free) for customized features, flight alerts, and more!